Time;durP1;ratioP1;P1;durP2;ratioP2;P2;SDS_P1;SDS_P2;PMS_P1;PMS_P2;Temp;Humidity;BMP_temperature;BMP_pressure;BME280_temperature;BME280_humidity;BME280_pressure;Samples;Min_cycle;Max_cycle;Signal;HPM_P1;HPM_P2
2021/07/11 00:02:07;;;;;;;9.93;9.13;;;19.00;99.90;;;;;;4995099;28;20176;-69
2021/07/11 00:04:33;;;;;;;13.03;9.83;;;19.00;99.90;;;;;;4995123;28;20599;-69
2021/07/11 00:06:58;;;;;;;9.97;8.90;;;19.00;99.90;;;;;;4995578;28;20176;-69
2021/07/11 00:09:24;;;;;;;8.93;8.10;;;19.00;99.90;;;;;;4995614;28;20262;-70
2021/07/11 00:11:49;;;;;;;10.17;9.27;;;18.90;99.90;;;;;;4995807;28;20627;-69
2021/07/11 00:14:15;;;;;;;9.60;8.80;;;18.90;99.90;;;;;;4995657;28;20540;-69
2021/07/11 00:16:40;;;;;;;10.57;9.50;;;18.90;99.90;;;;;;4995773;28;20651;-69
2021/07/11 00:19:06;;;;;;;12.53;11.40;;;18.90;99.90;;;;;;5000689;28;20217;-69
2021/07/11 00:21:31;;;;;;;11.30;9.30;;;18.80;99.90;;;;;;5006651;28;20714;-69
2021/07/11 00:23:57;;;;;;;11.10;10.00;;;18.80;99.90;;;;;;5014855;28;20172;-69
2021/07/11 00:26:22;;;;;;;13.60;8.77;;;18.80;99.90;;;;;;5014644;28;20167;-70
2021/07/11 00:28:48;;;;;;;10.03;9.03;;;18.80;99.90;;;;;;5014400;28;20755;-70
2021/07/11 00:31:14;;;;;;;10.17;9.13;;;18.80;99.90;;;;;;4996406;28;20175;-70
2021/07/11 00:33:39;;;;;;;10.00;9.20;;;18.70;99.90;;;;;;5014352;28;20514;-70
2021/07/11 00:36:05;;;;;;;10.43;9.53;;;18.70;99.90;;;;;;5001657;28;20556;-70
2021/07/11 00:38:31;;;;;;;11.10;9.33;;;18.70;99.90;;;;;;4994489;28;20705;-70
2021/07/11 00:40:57;;;;;;;9.67;8.13;;;18.70;99.90;;;;;;4994718;28;20268;-70
2021/07/11 00:43:23;;;;;;;9.33;8.53;;;18.70;99.90;;;;;;5013519;28;20186;-71
2021/07/11 00:45:48;;;;;;;8.77;8.07;;;18.70;99.90;;;;;;5013967;28;20418;-70
2021/07/11 00:48:17;;;;;;;9.20;8.30;;;18.60;99.90;;;;;;5013960;28;20200;-70
2021/07/11 00:50:43;;;;;;;10.27;9.37;;;18.60;99.90;;;;;;5014078;28;20180;-70
2021/07/11 00:53:09;;;;;;;10.10;9.10;;;18.60;99.90;;;;;;5001465;28;20895;-69
2021/07/11 00:55:35;;;;;;;8.77;7.87;;;18.50;99.90;;;;;;4994175;28;20167;-70
2021/07/11 00:58:02;;;;;;;12.77;8.67;;;18.50;99.90;;;;;;4993741;28;20982;-70
2021/07/11 01:00:27;;;;;;;8.93;8.07;;;18.50;99.90;;;;;;4993746;28;20926;-70
2021/07/11 01:03:10;;;;;;;9.77;8.87;;;18.50;99.90;;;;;;4993874;28;20415;-70
2021/07/11 01:05:36;;;;;;;9.77;8.87;;;18.40;99.90;;;;;;4993940;28;20171;-70
2021/07/11 01:08:13;;;;;;;9.90;8.90;;;18.40;99.90;;;;;;4993516;28;20439;-69
2021/07/11 01:10:44;;;;;;;10.17;9.27;;;18.40;99.90;;;;;;4993749;28;20399;-69
2021/07/11 01:13:14;;;;;;;10.07;9.23;;;18.30;99.90;;;;;;4992075;28;20419;-69
2021/07/11 01:15:44;;;;;;;9.00;8.17;;;18.30;99.90;;;;;;4993344;28;20421;-70
2021/07/11 01:18:11;;;;;;;9.00;8.20;;;18.20;99.90;;;;;;4993194;28;20471;-71
2021/07/11 01:20:56;;;;;;;9.37;8.50;;;18.20;99.90;;;;;;4993693;28;20419;-71
2021/07/11 01:23:27;;;;;;;11.07;9.80;;;18.20;99.90;;;;;;4993591;28;20416;-71
2021/07/11 01:25:53;;;;;;;9.67;8.77;;;18.10;99.90;;;;;;4993392;28;20923;-69
2021/07/11 01:28:20;;;;;;;9.40;8.60;;;18.10;99.90;;;;;;4993206;28;20438;-70
2021/07/11 01:30:49;;;;;;;9.77;8.97;;;18.10;99.90;;;;;;4993387;28;20423;-70
2021/07/11 01:33:18;;;;;;;9.97;9.00;;;18.00;99.90;;;;;;4993672;28;20438;-69
2021/07/11 01:35:44;;;;;;;10.17;9.13;;;18.00;99.90;;;;;;4993289;28;20434;-70
2021/07/11 01:38:10;;;;;;;9.43;8.40;;;18.00;99.90;;;;;;4992972;28;20554;-71
2021/07/11 01:40:36;;;;;;;9.70;8.73;;;18.00;99.90;;;;;;4993537;28;20529;-70
2021/07/11 01:43:02;;;;;;;10.00;9.17;;;18.00;99.90;;;;;;4975919;28;20526;-71
2021/07/11 01:45:30;;;;;;;10.23;8.90;;;18.00;99.90;;;;;;4993803;28;20408;-70
2021/07/11 01:47:57;;;;;;;10.50;9.50;;;17.90;99.90;;;;;;4993279;28;20418;-70
2021/07/11 01:50:24;;;;;;;14.30;11.00;;;18.00;99.90;;;;;;4993247;28;20421;-70
2021/07/11 01:52:50;;;;;;;11.90;8.90;;;17.90;99.90;;;;;;4993105;28;20402;-69
2021/07/11 01:55:17;;;;;;;10.60;9.60;;;17.90;99.90;;;;;;4975594;28;20414;-70
2021/07/11 01:57:43;;;;;;;10.60;9.60;;;17.90;99.90;;;;;;4993015;28;20600;-70
2021/07/11 02:00:12;;;;;;;11.30;9.93;;;17.90;99.90;;;;;;4993083;28;20438;-70
2021/07/11 02:02:38;;;;;;;10.13;9.20;;;17.90;99.90;;;;;;4992911;28;20412;-69
2021/07/11 02:05:11;;;;;;;9.20;8.40;;;17.80;99.90;;;;;;4993316;28;20961;-69
2021/07/11 02:07:37;;;;;;;9.83;8.97;;;17.80;99.90;;;;;;4992662;28;20983;-70
2021/07/11 02:10:08;;;;;;;9.50;8.50;;;17.80;99.90;;;;;;4992727;28;20430;-69
2021/07/11 02:12:36;;;;;;;11.13;10.07;;;17.80;99.90;;;;;;4992555;28;20171;-70
2021/07/11 02:15:05;;;;;;;8.87;8.07;;;17.80;99.90;;;;;;4992795;28;20866;-70
2021/07/11 02:17:31;;;;;;;10.30;9.33;;;17.70;99.90;;;;;;4992578;28;20458;-70
2021/07/11 02:20:01;;;;;;;9.77;8.77;;;17.70;99.90;;;;;;4992536;28;20430;-70
2021/07/11 02:22:27;;;;;;;10.20;9.20;;;17.70;99.90;;;;;;4992729;28;20534;-70
2021/07/11 02:24:53;;;;;;;10.93;9.07;;;17.70;99.90;;;;;;4992609;28;20461;-70
2021/07/11 02:27:22;;;;;;;9.77;8.87;;;17.70;99.90;;;;;;4992564;28;20410;-70
2021/07/11 02:29:52;;;;;;;9.13;8.30;;;17.70;99.90;;;;;;4992437;28;20426;-70
2021/07/11 02:32:19;;;;;;;10.73;9.63;;;17.60;99.90;;;;;;4992805;28;20409;-70
2021/07/11 02:34:45;;;;;;;10.00;8.97;;;17.60;99.90;;;;;;4992705;28;20434;-70
2021/07/11 02:37:15;;;;;;;10.67;9.77;;;17.60;99.90;;;;;;4992854;28;20501;-70
2021/07/11 02:39:44;;;;;;;9.60;8.70;;;17.60;99.90;;;;;;4995090;28;20437;-70
2021/07/11 02:42:13;;;;;;;10.30;9.20;;;17.60;99.90;;;;;;4997133;28;20411;-70
2021/07/11 02:44:44;;;;;;;9.03;8.13;;;17.60;99.90;;;;;;4993837;28;20414;-70
2021/07/11 02:47:15;;;;;;;10.27;9.37;;;17.60;99.90;;;;;;4992229;28;20410;-70
2021/07/11 02:49:45;;;;;;;9.87;8.87;;;17.60;99.90;;;;;;4992323;28;20920;-70
2021/07/11 02:52:10;;;;;;;10.80;9.13;;;17.60;99.90;;;;;;4992279;28;20494;-70
2021/07/11 02:54:41;;;;;;;11.63;10.13;;;17.50;99.90;;;;;;4993581;28;20553;-70
2021/07/11 02:57:09;;;;;;;8.93;8.13;;;17.50;99.90;;;;;;4996224;28;20167;-70
2021/07/11 02:59:35;;;;;;;10.90;9.80;;;17.50;99.90;;;;;;4978484;28;20798;-70
2021/07/11 03:02:06;;;;;;;10.97;9.87;;;17.50;99.90;;;;;;4996443;28;20430;-71
2021/07/11 03:04:36;;;;;;;9.80;9.00;;;17.40;99.90;;;;;;4996768;28;20912;-71
2021/07/11 03:07:02;;;;;;;10.10;9.20;;;17.40;99.90;;;;;;4996219;28;20405;-70
2021/07/11 03:09:28;;;;;;;10.00;9.00;;;17.40;99.90;;;;;;4996387;28;20454;-69
2021/07/11 03:11:54;;;;;;;10.00;9.10;;;17.40;99.90;;;;;;4995862;28;21212;-73
2021/07/11 03:14:22;;;;;;;10.67;9.57;;;17.40;99.90;;;;;;4996176;28;20181;-70
2021/07/11 03:16:53;;;;;;;10.10;9.30;;;17.40;99.90;;;;;;4995970;28;20401;-70
2021/07/11 03:19:20;;;;;;;10.90;9.80;;;17.40;99.90;;;;;;4995818;28;21013;-70
2021/07/11 03:21:47;;;;;;;11.60;10.60;;;17.40;99.90;;;;;;4995869;28;20413;-70
2021/07/11 03:24:12;;;;;;;9.47;8.57;;;17.40;99.90;;;;;;4996005;28;20414;-70
2021/07/11 03:26:40;;;;;;;10.23;9.33;;;17.40;99.90;;;;;;4995763;28;20826;-70
2021/07/11 03:29:14;;;;;;;9.77;8.87;;;17.40;99.90;;;;;;4995844;28;20190;-70
2021/07/11 03:31:40;;;;;;;10.93;9.93;;;17.40;99.90;;;;;;4995593;28;20411;-70
2021/07/11 03:34:06;;;;;;;10.13;9.00;;;17.40;99.90;;;;;;4995618;28;20854;-70
2021/07/11 03:36:33;;;;;;;11.80;9.47;;;17.40;99.90;;;;;;4995721;28;20459;-70
2021/07/11 03:39:01;;;;;;;9.20;8.30;;;17.40;99.90;;;;;;4995448;28;20237;-70
2021/07/11 03:41:30;;;;;;;11.23;10.07;;;17.40;99.90;;;;;;4995514;28;20418;-70
2021/07/11 03:43:58;;;;;;;9.50;8.60;;;17.40;99.90;;;;;;4995699;28;20418;-70
2021/07/11 03:46:28;;;;;;;12.53;10.70;;;17.40;99.90;;;;;;4995360;28;20410;-70
2021/07/11 03:48:57;;;;;;;10.80;9.73;;;17.50;99.90;;;;;;4995729;28;20474;-70
2021/07/11 03:51:32;;;;;;;10.50;9.43;;;17.50;99.90;;;;;;4995223;28;20453;-69
2021/07/11 03:53:59;;;;;;;9.93;9.00;;;17.50;99.90;;;;;;4995324;28;20952;-70
2021/07/11 03:56:30;;;;;;;14.57;9.30;;;17.60;99.90;;;;;;4995173;28;20454;-70
2021/07/11 03:58:57;;;;;;;10.00;9.00;;;17.60;99.90;;;;;;4994966;28;20471;-71
2021/07/11 04:01:27;;;;;;;9.77;8.87;;;17.60;99.90;;;;;;4995017;28;20945;-70
2021/07/11 04:03:54;;;;;;;9.33;8.43;;;17.70;99.90;;;;;;4995035;28;20537;-70
2021/07/11 04:06:21;;;;;;;9.17;8.33;;;17.70;99.90;;;;;;4994471;28;20408;-70
2021/07/11 04:08:48;;;;;;;9.00;7.70;;;17.70;99.90;;;;;;4994757;28;20434;-70
2021/07/11 04:11:14;;;;;;;10.17;9.00;;;17.80;99.90;;;;;;4994764;28;20418;-68
2021/07/11 04:13:39;;;;;;;8.93;8.00;;;17.90;99.90;;;;;;4994944;28;20420;-68
2021/07/11 04:16:08;;;;;;;8.77;8.00;;;18.00;99.90;;;;;;4994892;28;20415;-69
2021/07/11 04:18:45;;;;;;;10.10;8.40;;;18.10;99.90;;;;;;4994545;28;20240;-69
2021/07/11 04:21:12;;;;;;;8.73;7.93;;;18.20;99.90;;;;;;4994704;28;20566;-68
2021/07/11 04:23:40;;;;;;;9.93;9.03;;;18.30;99.90;;;;;;4994692;28;20408;-69
2021/07/11 04:26:05;;;;;;;9.90;8.97;;;18.40;99.90;;;;;;4994511;28;20902;-69
2021/07/11 04:28:37;;;;;;;7.87;7.27;;;18.90;99.90;;;;;;4994447;28;20435;-68
2021/07/11 04:31:04;;;;;;;8.10;7.40;;;19.80;99.90;;;;;;4994384;28;20180;-68
2021/07/11 04:33:32;;;;;;;8.13;6.90;;;20.50;99.90;;;;;;4994455;28;20502;-68
2021/07/11 04:35:59;;;;;;;8.87;7.90;;;21.10;99.90;;;;;;4994390;28;20423;-69
2021/07/11 04:38:25;;;;;;;7.40;6.90;;;21.40;99.90;;;;;;4994291;28;20553;-68
2021/07/11 04:40:50;;;;;;;7.17;6.47;;;21.60;99.90;;;;;;4994082;28;20444;-68
2021/07/11 04:43:17;;;;;;;6.43;5.93;;;21.80;99.90;;;;;;4994178;28;20168;-68
2021/07/11 04:45:45;;;;;;;6.90;6.27;;;22.00;99.90;;;;;;4994062;28;20632;-67
2021/07/11 04:48:11;;;;;;;7.40;6.80;;;21.90;99.90;;;;;;4994133;28;20407;-68
2021/07/11 04:50:36;;;;;;;7.60;7.00;;;21.90;99.90;;;;;;4994307;28;20414;-69
2021/07/11 04:53:02;;;;;;;8.90;7.43;;;21.80;99.90;;;;;;4994062;28;20412;-68
2021/07/11 04:55:28;;;;;;;7.37;6.77;;;21.40;99.90;;;;;;4994078;28;20197;-68
2021/07/11 04:57:53;;;;;;;8.27;7.27;;;21.20;99.90;;;;;;4993847;28;20462;-68
2021/07/11 05:00:20;;;;;;;7.50;6.90;;;21.20;99.90;;;;;;4994188;28;20522;-69
2021/07/11 05:02:46;;;;;;;7.20;6.60;;;21.40;99.90;;;;;;4993805;28;20250;-69
2021/07/11 05:05:11;;;;;;;11.77;7.83;;;21.10;99.90;;;;;;4994000;28;20816;-69
2021/07/11 05:07:37;;;;;;;10.53;8.20;;;20.90;99.90;;;;;;4993878;28;20510;-69
2021/07/11 05:10:04;;;;;;;7.37;6.67;;;20.70;99.90;;;;;;4993983;28;20281;-69
2021/07/11 05:12:30;;;;;;;8.00;7.20;;;20.70;99.90;;;;;;4993781;28;20969;-69
2021/07/11 05:14:55;;;;;;;8.13;7.43;;;20.80;99.90;;;;;;4993695;28;20506;-69
2021/07/11 05:17:21;;;;;;;7.17;6.60;;;20.90;99.90;;;;;;4992735;28;20188;-68
2021/07/11 05:19:46;;;;;;;7.40;6.80;;;21.10;99.90;;;;;;4993712;28;20198;-69
2021/07/11 05:22:13;;;;;;;7.60;6.90;;;21.10;99.90;;;;;;4993603;28;20180;-69
2021/07/11 05:24:39;;;;;;;6.83;6.23;;;21.10;99.90;;;;;;4993620;28;20258;-69
2021/07/11 05:27:04;;;;;;;7.50;6.90;;;21.20;99.90;;;;;;4993361;28;20441;-69
2021/07/11 05:29:30;;;;;;;8.27;7.37;;;21.10;99.90;;;;;;4993830;28;20453;-69
2021/07/11 05:31:55;;;;;;;7.93;7.20;;;21.10;99.90;;;;;;4993445;28;20724;-70
2021/07/11 05:34:21;;;;;;;7.60;6.90;;;21.10;99.90;;;;;;4993506;28;20191;-69
2021/07/11 05:36:46;;;;;;;7.17;6.53;;;21.00;99.90;;;;;;4993264;28;20257;-69
2021/07/11 05:39:12;;;;;;;7.77;7.13;;;21.00;99.90;;;;;;4993066;28;20211;-69
2021/07/11 05:41:37;;;;;;;6.80;6.20;;;21.20;99.90;;;;;;4993346;28;20173;-69
2021/07/11 05:44:04;;;;;;;7.27;6.63;;;21.40;99.90;;;;;;4993077;28;20174;-69
2021/07/11 05:46:29;;;;;;;7.13;6.47;;;21.50;99.90;;;;;;4993403;28;20595;-69
2021/07/11 05:48:55;;;;;;;10.77;6.93;;;21.60;99.90;;;;;;4993009;28;20428;-69
2021/07/11 05:51:20;;;;;;;5.93;5.50;;;22.00;99.90;;;;;;4992991;28;20277;-69
2021/07/11 05:53:46;;;;;;;6.43;5.93;;;22.40;99.90;;;;;;4992963;28;20178;-69
2021/07/11 05:56:12;;;;;;;6.43;5.93;;;22.80;99.90;;;;;;4992872;28;20304;-69
2021/07/11 05:58:37;;;;;;;6.13;5.63;;;23.80;99.90;;;;;;4992612;28;21021;-69
2021/07/11 06:01:03;;;;;;;6.37;5.77;;;24.00;99.90;;;;;;4992765;28;20191;-69
2021/07/11 06:03:29;;;;;;;6.07;5.60;;;23.70;99.90;;;;;;4993074;28;20252;-69
2021/07/11 06:05:54;;;;;;;6.90;6.27;;;23.70;99.90;;;;;;4992885;28;20422;-69
2021/07/11 06:08:20;;;;;;;5.73;5.33;;;23.80;99.90;;;;;;4992547;28;20196;-69
2021/07/11 06:10:46;;;;;;;6.30;5.80;;;24.00;99.90;;;;;;4992808;28;20423;-69
2021/07/11 06:13:11;;;;;;;6.60;5.20;;;24.00;99.90;;;;;;4992561;28;20267;-69
2021/07/11 06:15:37;;;;;;;5.77;5.27;;;24.20;99.90;;;;;;4992737;28;20537;-69
2021/07/11 06:18:03;;;;;;;5.37;4.97;;;24.50;99.90;;;;;;4992654;28;20204;-69
2021/07/11 06:20:29;;;;;;;5.83;5.33;;;24.90;99.90;;;;;;4975254;28;20235;-69
2021/07/11 06:22:54;;;;;;;5.87;5.40;;;24.70;99.90;;;;;;4992693;28;20501;-69
2021/07/11 06:25:20;;;;;;;5.40;5.00;;;24.80;99.90;;;;;;4992813;28;20175;-69
2021/07/11 06:27:46;;;;;;;4.70;4.30;;;24.90;99.90;;;;;;4992519;28;20183;-69
2021/07/11 06:30:14;;;;;;;5.53;4.67;;;25.20;99.90;;;;;;4992656;28;20195;-69
2021/07/11 06:32:42;;;;;;;4.90;4.50;;;25.90;99.90;;;;;;4992548;28;20260;-69
2021/07/11 06:35:10;;;;;;;4.90;3.90;;;26.40;99.90;;;;;;4992377;28;20491;-69
2021/07/11 06:37:35;;;;;;;4.97;4.40;;;26.60;99.90;;;;;;4992076;28;20456;-69
2021/07/11 06:40:01;;;;;;;3.47;3.17;;;26.70;99.90;;;;;;4992473;28;20490;-69
2021/07/11 06:42:26;;;;;;;3.77;3.47;;;27.40;99.90;;;;;;4992549;28;20768;-69
2021/07/11 06:44:52;;;;;;;3.97;3.70;;;27.70;99.90;;;;;;4992698;28;20172;-69
2021/07/11 06:47:17;;;;;;;4.03;3.73;;;28.10;99.90;;;;;;4992401;28;20656;-69
2021/07/11 06:49:43;;;;;;;3.50;3.30;;;28.40;99.90;;;;;;4992203;28;20275;-69
2021/07/11 06:52:09;;;;;;;3.87;3.53;;;29.00;99.40;;;;;;4992027;28;20183;-69
2021/07/11 06:54:34;;;;;;;3.77;3.33;;;28.40;99.90;;;;;;4992281;28;20172;-69
2021/07/11 06:57:00;;;;;;;3.93;3.63;;;29.10;99.50;;;;;;4991938;28;20579;-69
2021/07/11 06:59:25;;;;;;;3.47;3.17;;;29.20;98.40;;;;;;4992082;28;20266;-69
2021/07/11 07:01:51;;;;;;;3.27;2.87;;;27.40;99.90;;;;;;4992166;28;20260;-69
2021/07/11 07:04:16;;;;;;;3.50;3.20;;;28.40;99.90;;;;;;4992080;28;20169;-69
2021/07/11 07:06:42;;;;;;;3.40;3.20;;;28.50;99.90;;;;;;4991962;28;20193;-69
2021/07/11 07:09:09;;;;;;;3.30;3.10;;;28.10;99.90;;;;;;4992021;28;20629;-69
2021/07/11 07:11:34;;;;;;;3.37;3.07;;;29.20;99.40;;;;;;4992034;28;20235;-69
2021/07/11 07:14:00;;;;;;;3.40;2.73;;;29.00;99.10;;;;;;4992103;28;20892;-70
2021/07/11 07:16:26;;;;;;;5.60;2.83;;;29.50;96.00;;;;;;4992076;28;20172;-70
2021/07/11 07:18:51;;;;;;;2.70;2.50;;;30.30;96.30;;;;;;4992047;28;20463;-70
2021/07/11 07:21:17;;;;;;;2.37;2.17;;;30.50;93.20;;;;;;4991943;28;20173;-70
2021/07/11 07:23:44;;;;;;;2.30;2.10;;;30.70;92.40;;;;;;4974538;28;20696;-70
2021/07/11 07:26:09;;;;;;;2.60;2.40;;;30.40;92.50;;;;;;4991875;28;20180;-70
2021/07/11 07:28:35;;;;;;;2.07;1.97;;;30.00;93.90;;;;;;4992000;28;20792;-71
2021/07/11 07:31:00;;;;;;;3.27;1.83;;;30.40;92.60;;;;;;4992060;28;20211;-70
2021/07/11 07:33:25;;;;;;;2.10;2.00;;;30.20;92.70;;;;;;4991898;28;20650;-71
2021/07/11 07:35:51;;;;;;;2.57;1.70;;;30.30;91.10;;;;;;4991911;28;20207;-70
2021/07/11 07:38:17;;;;;;;2.60;2.10;;;30.30;91.80;;;;;;4991562;28;20240;-70
2021/07/11 07:40:42;;;;;;;5.70;2.40;;;30.40;92.30;;;;;;4993128;28;20204;-71
2021/07/11 07:43:09;;;;;;;1.90;1.80;;;29.80;92.00;;;;;;4995574;28;20173;-70
2021/07/11 07:45:35;;;;;;;2.67;2.47;;;30.70;91.40;;;;;;4996254;28;20670;-72
2021/07/11 07:48:01;;;;;;;1.87;1.77;;;31.20;89.30;;;;;;4995857;28;20416;-71
2021/07/11 07:50:26;;;;;;;2.40;2.20;;;31.90;87.10;;;;;;4995784;28;20223;-70
2021/07/11 07:52:52;;;;;;;2.60;2.50;;;31.70;86.80;;;;;;4996157;28;20491;-70
2021/07/11 07:55:17;;;;;;;2.47;2.27;;;31.80;87.10;;;;;;4995219;28;20215;-70
2021/07/11 07:57:44;;;;;;;2.43;2.23;;;31.40;85.80;;;;;;4995370;28;20192;-70
2021/07/11 08:00:11;;;;;;;2.43;2.23;;;31.40;85.00;;;;;;4995580;28;20196;-68
2021/07/11 08:02:38;;;;;;;2.60;2.40;;;30.20;86.90;;;;;;4994971;28;20415;-69
2021/07/11 08:05:04;;;;;;;2.73;2.23;;;30.60;86.80;;;;;;4994980;28;20499;-69
2021/07/11 08:07:30;;;;;;;2.30;2.00;;;29.90;88.20;;;;;;4994740;28;20414;-69
2021/07/11 08:09:56;;;;;;;4.03;2.43;;;30.90;88.00;;;;;;4994926;28;20420;-69
2021/07/11 08:12:21;;;;;;;2.37;2.10;;;31.00;86.50;;;;;;4995085;28;20169;-69
2021/07/11 08:14:47;;;;;;;3.60;3.13;;;30.90;88.80;;;;;;4995497;28;20172;-69
2021/07/11 08:17:12;;;;;;;2.57;2.37;;;30.60;87.90;;;;;;4995683;28;20176;-69
2021/07/11 08:19:38;;;;;;;2.60;2.40;;;30.50;87.50;;;;;;4995085;28;20295;-69
2021/07/11 08:22:03;;;;;;;2.93;2.67;;;30.40;88.80;;;;;;4995020;28;20175;-69
2021/07/11 08:24:29;;;;;;;3.23;2.93;;;30.60;87.80;;;;;;4994883;28;20165;-69
2021/07/11 08:26:55;;;;;;;2.73;2.53;;;30.60;89.80;;;;;;4994667;28;20219;-69
2021/07/11 08:29:21;;;;;;;2.57;2.37;;;30.90;88.50;;;;;;4994706;28;20428;-69
2021/07/11 08:31:46;;;;;;;4.90;2.87;;;31.30;84.50;;;;;;4994693;28;20260;-69
2021/07/11 08:34:12;;;;;;;2.80;2.60;;;30.80;82.50;;;;;;4994628;28;20181;-69
2021/07/11 08:36:37;;;;;;;4.23;2.43;;;30.10;83.60;;;;;;4994566;28;20689;-69
2021/07/11 08:39:04;;;;;;;3.70;3.03;;;30.30;83.20;;;;;;4994308;28;20262;-71
2021/07/11 08:41:29;;;;;;;14.60;3.40;;;29.90;83.50;;;;;;4994033;28;20252;-69
2021/07/11 08:43:55;;;;;;;3.07;2.87;;;30.00;85.10;;;;;;4994446;28;20435;-69
2021/07/11 08:46:22;;;;;;;3.10;2.90;;;30.00;85.20;;;;;;4994665;28;20197;-68
2021/07/11 08:48:49;;;;;;;3.60;3.03;;;30.00;86.50;;;;;;4994209;28;20936;-69
2021/07/11 08:51:16;;;;;;;2.67;2.47;;;30.20;84.40;;;;;;4994392;28;20408;-68
2021/07/11 08:53:41;;;;;;;3.83;3.00;;;30.20;83.40;;;;;;4994199;28;20491;-69
2021/07/11 08:56:22;;;;;;;3.93;3.20;;;30.30;81.30;;;;;;4994160;28;20921;-69
2021/07/11 08:58:51;;;;;;;4.50;2.87;;;30.10;81.60;;;;;;4994137;28;20682;-68
2021/07/11 09:01:21;;;;;;;3.30;3.10;;;29.80;83.60;;;;;;4993751;28;20503;-68
2021/07/11 09:04:10;;;;;;;2.87;2.57;;;30.00;83.30;;;;;;4988711;28;20431;-74
2021/07/11 09:06:55;;;;;;;2.50;2.30;;;30.30;80.40;;;;;;4975406;28;20495;-69
2021/07/11 09:09:29;;;;;;;3.00;2.77;;;30.30;78.70;;;;;;4974829;28;20437;-68
2021/07/11 09:11:59;;;;;;;3.50;3.27;;;30.10;80.30;;;;;;4975298;28;20427;-68
2021/07/11 09:14:26;;;;;;;4.67;2.80;;;30.00;80.20;;;;;;4974522;28;20409;-68
2021/07/11 09:16:53;;;;;;;5.20;2.63;;;29.40;78.70;;;;;;4974796;28;20420;-68
2021/07/11 09:19:36;;;;;;;2.53;2.33;;;29.60;79.40;;;;;;4975073;28;20499;-69
2021/07/11 09:22:23;;;;;;;2.40;2.20;;;30.20;77.80;;;;;;4974478;28;20416;-68
2021/07/11 09:24:56;;;;;;;5.27;2.90;;;30.30;78.00;;;;;;4974711;28;20885;-69
2021/07/11 09:27:31;;;;;;;2.83;2.63;;;30.00;77.40;;;;;;4974439;28;20428;-68
2021/07/11 09:30:07;;;;;;;3.90;2.60;;;29.90;77.00;;;;;;4974103;28;20949;-69
2021/07/11 09:32:35;;;;;;;2.60;2.40;;;29.50;77.00;;;;;;4973905;28;20424;-68
2021/07/11 09:35:15;;;;;;;2.90;2.60;;;29.20;78.60;;;;;;4973886;28;20802;-69
2021/07/11 09:37:44;;;;;;;2.80;2.60;;;29.30;77.30;;;;;;4974818;28;20850;-67
2021/07/11 09:40:11;;;;;;;2.40;2.27;;;29.70;79.80;;;;;;4974079;28;20435;-68
2021/07/11 09:42:42;;;;;;;3.30;2.80;;;30.10;78.10;;;;;;4973995;28;20412;-68
2021/07/11 09:45:22;;;;;;;2.30;2.03;;;30.80;75.90;;;;;;4973806;28;20409;-68
2021/07/11 09:47:49;;;;;;;3.17;2.60;;;31.20;74.30;;;;;;4973571;28;20413;-69
2021/07/11 09:50:23;;;;;;;2.63;2.43;;;30.70;74.70;;;;;;4973865;28;20433;-69
2021/07/11 09:52:53;;;;;;;2.90;2.70;;;30.80;74.30;;;;;;4973791;28;20439;-68
2021/07/11 09:55:30;;;;;;;2.30;2.10;;;30.70;74.80;;;;;;4973534;28;20405;-69
2021/07/11 09:58:04;;;;;;;2.60;2.40;;;30.40;75.10;;;;;;4973405;28;21003;-68
2021/07/11 10:00:33;;;;;;;2.50;2.30;;;30.00;74.20;;;;;;4973748;28;20405;-69
2021/07/11 10:03:23;;;;;;;2.50;2.30;;;29.50;75.90;;;;;;4973226;28;20409;-68
2021/07/11 10:05:49;;;;;;;3.00;2.80;;;29.60;77.10;;;;;;4993105;28;20411;-69
2021/07/11 10:08:14;;;;;;;3.07;2.77;;;29.50;77.60;;;;;;4992705;28;20432;-69
2021/07/11 10:10:41;;;;;;;2.37;2.13;;;29.90;77.50;;;;;;4999313;28;20584;-69
2021/07/11 10:13:07;;;;;;;3.33;2.77;;;29.60;77.30;;;;;;5004309;28;20724;-68
2021/07/11 10:15:35;;;;;;;4.33;2.77;;;28.80;77.60;;;;;;5012642;28;20418;-69
2021/07/11 10:18:07;;;;;;;3.17;2.60;;;29.10;78.90;;;;;;5011914;28;20454;-69
2021/07/11 10:20:36;;;;;;;2.80;2.60;;;28.80;77.60;;;;;;5012655;28;20402;-69
2021/07/11 10:23:03;;;;;;;2.90;2.70;;;28.70;78.40;;;;;;4994595;28;20415;-68
2021/07/11 10:25:30;;;;;;;2.83;2.60;;;28.50;78.00;;;;;;5012303;28;20477;-69
2021/07/11 10:28:11;;;;;;;3.20;2.77;;;28.90;78.00;;;;;;5012660;28;20415;-69
2021/07/11 10:30:45;;;;;;;2.97;2.77;;;28.90;77.70;;;;;;5012995;28;20413;-69
2021/07/11 10:33:16;;;;;;;2.77;2.57;;;28.70;77.80;;;;;;5013293;28;20432;-69
2021/07/11 10:36:03;;;;;;;3.57;3.27;;;28.50;79.60;;;;;;5012317;28;20476;-70
2021/07/11 10:38:51;;;;;;;4.03;3.73;;;28.60;79.40;;;;;;5000571;28;20484;-74
2021/07/11 10:41:26;;;;;;;3.30;3.10;;;28.30;80.60;;;;;;4992879;28;20498;-75
2021/07/11 10:44:16;;;;;;;3.50;3.20;;;28.00;80.30;;;;;;4992782;28;20413;-75
2021/07/11 10:46:47;;;;;;;3.70;2.87;;;27.90;80.30;;;;;;4992289;28;20421;-72
2021/07/11 10:49:18;;;;;;;6.13;4.00;;;27.70;80.40;;;;;;4992711;28;20433;-73
2021/07/11 10:51:55;;;;;;;4.50;3.03;;;27.90;80.80;;;;;;4992413;28;20434;-69
2021/07/11 10:54:55;;;;;;;3.83;3.53;;;27.90;79.60;;;;;;4992097;28;20411;-69
2021/07/11 10:57:36;;;;;;;3.40;3.07;;;27.60;78.20;;;;;;4991627;28;20425;-69
2021/07/11 11:00:13;;;;;;;3.43;3.23;;;27.30;79.40;;;;;;4992222;28;20433;-69
2021/07/11 11:02:39;;;;;;;3.30;2.70;;;27.50;78.50;;;;;;4992140;28;20464;-72
2021/07/11 11:05:16;;;;;;;3.33;2.90;;;27.70;78.00;;;;;;4992153;28;20509;-69
2021/07/11 11:07:50;;;;;;;4.60;2.73;;;27.60;79.20;;;;;;4991954;28;20471;-68
2021/07/11 11:10:33;;;;;;;5.10;3.37;;;27.60;79.70;;;;;;4979081;28;20453;-69
2021/07/11 11:13:25;;;;;;;2.93;2.73;;;27.60;78.20;;;;;;5011460;28;20781;-72
2021/07/11 11:16:12;;;;;;;4.00;2.70;;;28.00;77.80;;;;;;4995135;28;20421;-68
2021/07/11 11:18:39;;;;;;;2.67;2.43;;;27.80;77.70;;;;;;4995804;28;20464;-68
2021/07/11 11:21:14;;;;;;;3.03;2.80;;;28.20;78.30;;;;;;4978501;28;20425;-69
2021/07/11 11:23:46;;;;;;;2.80;2.60;;;28.30;77.20;;;;;;4995658;28;20408;-69
2021/07/11 11:26:20;;;;;;;3.00;2.80;;;28.30;79.10;;;;;;4995800;28;20433;-69
2021/07/11 11:28:47;;;;;;;3.33;3.03;;;28.00;78.60;;;;;;4995628;28;20436;-69
2021/07/11 11:31:22;;;;;;;2.33;2.13;;;28.00;78.30;;;;;;4995647;28;20461;-69
2021/07/11 11:34:11;;;;;;;3.80;3.37;;;27.90;77.20;;;;;;4995613;28;20419;-70
2021/07/11 11:36:38;;;;;;;2.47;2.27;;;27.90;75.50;;;;;;4995540;28;20762;-70
2021/07/11 11:39:09;;;;;;;3.23;2.60;;;27.80;77.00;;;;;;4995400;28;21005;-69
2021/07/11 11:41:37;;;;;;;3.37;3.17;;;27.90;77.10;;;;;;4995180;28;20932;-70
2021/07/11 11:44:14;;;;;;;2.73;2.23;;;28.00;75.60;;;;;;4995597;28;20501;-70
2021/07/11 11:46:42;;;;;;;2.60;2.40;;;27.90;73.10;;;;;;4995428;28;20415;-70
2021/07/11 11:49:10;;;;;;;3.10;2.80;;;27.90;76.00;;;;;;5006939;28;20442;-70
2021/07/11 11:51:44;;;;;;;3.40;3.17;;;28.20;73.30;;;;;;5016264;28;20477;-70
2021/07/11 11:54:09;;;;;;;3.17;2.87;;;28.00;75.70;;;;;;5018356;28;20417;-70
2021/07/11 11:56:40;;;;;;;2.80;2.60;;;28.20;75.00;;;;;;5018124;28;20461;-70
2021/07/11 11:59:06;;;;;;;2.70;2.50;;;28.20;75.00;;;;;;5017642;28;20207;-70
2021/07/11 12:01:36;;;;;;;3.30;3.07;;;28.30;75.10;;;;;;5018960;28;20728;-70
2021/07/11 12:04:13;;;;;;;4.13;2.80;;;28.40;75.80;;;;;;5017183;28;20170;-70
2021/07/11 12:06:40;;;;;;;2.90;2.70;;;28.60;75.60;;;;;;4997713;28;20436;-70
2021/07/11 12:09:08;;;;;;;3.60;2.90;;;28.40;76.00;;;;;;4998047;28;20794;-72
2021/07/11 12:11:34;;;;;;;3.63;2.97;;;28.60;73.90;;;;;;5011133;28;20424;-72
2021/07/11 12:14:24;;;;;;;2.90;2.70;;;28.60;76.30;;;;;;4972920;28;20466;-73
2021/07/11 12:16:58;;;;;;;3.27;2.97;;;28.60;76.80;;;;;;4997289;28;20459;-70
2021/07/11 12:19:24;;;;;;;2.57;2.47;;;28.10;76.00;;;;;;4998177;28;20471;-72
2021/07/11 12:21:49;;;;;;;3.27;2.97;;;28.30;76.00;;;;;;4998051;28;20499;-71
2021/07/11 12:24:18;;;;;;;2.70;2.50;;;28.70;74.90;;;;;;4998212;28;20212;-74
2021/07/11 12:26:47;;;;;;;2.80;2.60;;;28.70;75.00;;;;;;4996771;28;20542;-73
2021/07/11 12:29:19;;;;;;;2.87;2.67;;;28.80;74.50;;;;;;4986195;28;20442;-72
2021/07/11 12:31:45;;;;;;;2.50;2.30;;;28.60;74.50;;;;;;5015924;28;20444;-72
2021/07/11 12:34:16;;;;;;;3.83;2.53;;;28.50;71.00;;;;;;5005906;28;20427;-73
2021/07/11 12:37:07;;;;;;;3.00;2.80;;;28.50;71.70;;;;;;4996429;28;20431;-67
2021/07/11 12:39:37;;;;;;;2.90;2.70;;;28.80;72.20;;;;;;4997985;28;20466;-73
2021/07/11 12:42:15;;;;;;;3.90;2.63;;;28.70;72.10;;;;;;4997754;28;20408;-72
2021/07/11 12:44:41;;;;;;;2.90;2.70;;;28.90;72.80;;;;;;4997866;28;20403;-71
2021/07/11 12:47:16;;;;;;;2.60;2.40;;;28.90;73.00;;;;;;4997504;28;20422;-72
2021/07/11 12:49:56;;;;;;;2.17;2.07;;;28.30;71.10;;;;;;4991335;28;20914;-73
2021/07/11 12:52:24;;;;;;;3.10;2.90;;;28.10;71.20;;;;;;4977801;28;20446;-72
2021/07/11 12:54:50;;;;;;;3.07;2.80;;;28.50;72.40;;;;;;4984600;28;20510;-72